Time;durP1;ratioP1;P1;durP2;ratioP2;P2;SDS_P1;SDS_P2;PMS_P1;PMS_P2;Temp;Humidity;BMP_temperature;BMP_pressure;BME280_temperature;BME280_humidity;BME280_pressure;Samples;Min_cycle;Max_cycle;Signal;HPM_P1;HPM_P2
2023/06/19 00:01:15;;;;;;;10.27;7.18;;;22.50;53.80;;;;;;4989520;28;20057;-85
2023/06/19 00:03:42;;;;;;;9.25;6.75;;;22.50;53.70;;;;;;4990095;28;20083;-85
2023/06/19 00:06:09;;;;;;;10.13;7.07;;;22.50;53.70;;;;;;4991395;28;20113;-84
2023/06/19 00:08:36;;;;;;;9.38;7.30;;;22.50;53.60;;;;;;4988249;28;20089;-84
2023/06/19 00:11:03;;;;;;;10.18;7.22;;;22.40;53.60;;;;;;4989609;28;20054;-84
2023/06/19 00:13:33;;;;;;;10.38;7.18;;;22.40;53.60;;;;;;4989602;28;20046;-84
2023/06/19 00:16:01;;;;;;;11.30;7.40;;;22.40;53.50;;;;;;4989351;28;20107;-85
2023/06/19 00:18:28;;;;;;;11.27;7.13;;;22.30;53.50;;;;;;4987764;28;20458;-84
2023/06/19 00:20:56;;;;;;;9.63;7.47;;;22.30;53.50;;;;;;4978907;28;20126;-84
2023/06/19 00:23:23;;;;;;;11.23;7.15;;;22.30;53.50;;;;;;4984812;28;20047;-84
2023/06/19 00:25:50;;;;;;;9.55;6.85;;;22.30;53.40;;;;;;5000409;28;20054;-83
2023/06/19 00:28:19;;;;;;;9.77;7.20;;;22.30;53.40;;;;;;4989686;28;20053;-84
2023/06/19 00:30:48;;;;;;;9.93;6.93;;;22.30;53.40;;;;;;4989294;28;20058;-84
2023/06/19 00:33:15;;;;;;;9.63;6.90;;;22.30;53.40;;;;;;4989321;28;20055;-84
2023/06/19 00:35:42;;;;;;;9.27;6.97;;;22.30;53.40;;;;;;4989108;28;20051;-84
2023/06/19 00:38:09;;;;;;;10.30;7.05;;;22.30;53.30;;;;;;4990713;28;20055;-84
2023/06/19 00:40:36;;;;;;;9.00;7.22;;;22.20;53.20;;;;;;4989364;28;20145;-85
2023/06/19 00:43:03;;;;;;;9.90;7.20;;;22.20;53.20;;;;;;4987537;28;20137;-83
2023/06/19 00:45:30;;;;;;;8.85;6.60;;;22.20;53.10;;;;;;4989457;28;20082;-84
2023/06/19 00:48:00;;;;;;;9.63;6.80;;;22.20;53.20;;;;;;4989389;28;20051;-84
2023/06/19 00:50:29;;;;;;;9.68;6.72;;;22.20;53.20;;;;;;4988799;28;20043;-84
2023/06/19 00:52:56;;;;;;;9.40;7.00;;;22.20;53.20;;;;;;4989116;28;20055;-85
2023/06/19 00:55:26;;;;;;;9.63;6.30;;;22.20;53.00;;;;;;4989129;28;20066;-84
2023/06/19 00:57:53;;;;;;;7.90;6.25;;;22.20;52.90;;;;;;4989434;28;20133;-84
2023/06/19 01:00:20;;;;;;;9.75;6.65;;;22.20;52.90;;;;;;4987417;28;20061;-84
2023/06/19 01:02:48;;;;;;;8.88;6.68;;;22.20;53.00;;;;;;4988762;28;20051;-85
2023/06/19 01:05:17;;;;;;;9.85;6.68;;;22.20;52.90;;;;;;4988810;28;20061;-83
2023/06/19 01:07:48;;;;;;;8.73;6.33;;;22.20;52.90;;;;;;4988757;28;20525;-84
2023/06/19 01:10:22;;;;;;;9.70;6.93;;;22.20;52.80;;;;;;4988114;28;20057;-84
2023/06/19 01:12:56;;;;;;;9.00;6.35;;;22.20;52.60;;;;;;4988813;28;20138;-84
2023/06/19 01:15:24;;;;;;;8.50;6.57;;;22.20;52.70;;;;;;4988965;28;20129;-84
2023/06/19 01:17:53;;;;;;;10.13;6.68;;;22.20;52.70;;;;;;4987835;28;20134;-84
2023/06/19 01:20:25;;;;;;;8.37;6.47;;;22.20;52.70;;;;;;4988450;28;20054;-84
2023/06/19 01:22:56;;;;;;;8.48;6.65;;;22.20;52.60;;;;;;4988470;28;20417;-84
2023/06/19 01:25:24;;;;;;;8.55;6.65;;;22.20;52.50;;;;;;4972408;28;20572;-84
2023/06/19 01:27:52;;;;;;;9.73;6.57;;;22.20;52.40;;;;;;4988709;28;20054;-84
2023/06/19 01:30:20;;;;;;;10.15;6.85;;;22.20;52.40;;;;;;4988473;28;20054;-84
2023/06/19 01:32:54;;;;;;;10.67;6.93;;;22.20;52.20;;;;;;4988319;28;20043;-84
2023/06/19 01:35:33;;;;;;;8.80;6.78;;;22.20;52.30;;;;;;4987504;28;20055;-84
2023/06/19 01:38:02;;;;;;;9.07;6.50;;;22.20;52.00;;;;;;4987640;28;20051;-83
2023/06/19 01:40:31;;;;;;;9.10;6.57;;;22.20;51.90;;;;;;4988475;28;20047;-84
2023/06/19 01:43:00;;;;;;;8.15;6.45;;;22.30;52.00;;;;;;4987975;28;20051;-84
2023/06/19 01:45:28;;;;;;;8.67;6.53;;;22.30;51.90;;;;;;4987983;28;20066;-84
2023/06/19 01:47:55;;;;;;;8.43;6.40;;;22.30;51.80;;;;;;4988214;28;20050;-85
2023/06/19 01:50:22;;;;;;;8.68;6.65;;;22.30;52.00;;;;;;4988568;28;20094;-84
2023/06/19 01:52:50;;;;;;;10.02;7.03;;;22.30;52.00;;;;;;4970681;28;20571;-84
2023/06/19 01:55:18;;;;;;;11.02;6.80;;;22.30;51.90;;;;;;4972041;28;20077;-84
2023/06/19 01:57:45;;;;;;;9.90;6.80;;;22.30;51.90;;;;;;4987898;28;20141;-84
2023/06/19 02:00:13;;;;;;;9.43;6.57;;;22.30;52.00;;;;;;4987691;28;20707;-84
2023/06/19 02:02:43;;;;;;;8.57;6.80;;;22.30;52.20;;;;;;4988445;28;20087;-84
2023/06/19 02:05:13;;;;;;;8.68;6.32;;;22.30;52.20;;;;;;4988250;28;20071;-84
2023/06/19 02:07:40;;;;;;;8.50;6.75;;;22.30;52.20;;;;;;4988089;28;20082;-84
2023/06/19 02:10:08;;;;;;;9.10;6.90;;;22.30;52.20;;;;;;4986518;28;20094;-84
2023/06/19 02:12:36;;;;;;;7.90;6.28;;;22.30;52.20;;;;;;4987817;28;20058;-84
2023/06/19 02:15:03;;;;;;;9.65;6.40;;;22.30;52.30;;;;;;4987708;28;20138;-84
2023/06/19 02:17:30;;;;;;;8.88;6.68;;;22.40;52.40;;;;;;4987767;28;20134;-84
2023/06/19 02:19:57;;;;;;;10.48;7.15;;;22.30;52.30;;;;;;4987647;28;20046;-84
2023/06/19 02:22:25;;;;;;;9.37;7.37;;;22.40;52.40;;;;;;4987551;28;20050;-84
2023/06/19 02:24:54;;;;;;;10.18;7.63;;;22.30;52.30;;;;;;4987864;28;20154;-84
2023/06/19 02:27:21;;;;;;;9.32;7.00;;;22.40;52.40;;;;;;4986567;28;20473;-84
2023/06/19 02:29:50;;;;;;;9.27;6.95;;;22.30;52.50;;;;;;4987718;28;20129;-85
2023/06/19 02:32:17;;;;;;;10.20;6.80;;;22.40;52.50;;;;;;4987720;28;20051;-85
2023/06/19 02:34:44;;;;;;;8.90;6.70;;;22.40;52.60;;;;;;4987622;28;20418;-84
2023/06/19 02:37:10;;;;;;;10.63;7.07;;;22.30;52.70;;;;;;4987541;28;20063;-84
2023/06/19 02:39:37;;;;;;;10.02;7.57;;;22.40;52.70;;;;;;4987808;28;20536;-84
2023/06/19 02:42:05;;;;;;;9.27;7.10;;;22.40;52.90;;;;;;4987395;28;20050;-84
2023/06/19 02:44:33;;;;;;;8.73;6.80;;;22.40;52.90;;;;;;4986587;28;20085;-84
2023/06/19 02:47:01;;;;;;;8.97;7.00;;;22.30;53.10;;;;;;4987283;28;20113;-84
2023/06/19 02:49:28;;;;;;;10.57;7.15;;;22.40;53.20;;;;;;4986880;28;20551;-84
2023/06/19 02:51:55;;;;;;;9.07;6.97;;;22.40;53.20;;;;;;4986837;28;20102;-84
2023/06/19 02:54:22;;;;;;;9.45;7.15;;;22.40;53.40;;;;;;4987448;28;20173;-84
2023/06/19 02:56:49;;;;;;;11.35;7.63;;;22.30;53.60;;;;;;4987787;28;20507;-84
2023/06/19 02:59:18;;;;;;;9.23;7.53;;;22.40;53.80;;;;;;4987186;28;20058;-84
2023/06/19 03:01:45;;;;;;;10.52;7.32;;;22.40;54.00;;;;;;4985784;28;20065;-84
2023/06/19 03:04:15;;;;;;;10.32;7.50;;;22.40;54.10;;;;;;4986935;28;20138;-84
2023/06/19 03:06:42;;;;;;;9.05;6.82;;;22.40;54.30;;;;;;4986504;28;20117;-84
2023/06/19 03:09:12;;;;;;;9.95;7.47;;;22.40;54.50;;;;;;4986577;28;20055;-84
2023/06/19 03:11:40;;;;;;;11.23;7.20;;;22.30;54.80;;;;;;4986238;28;20055;-83
2023/06/19 03:14:07;;;;;;;9.77;7.00;;;22.40;54.90;;;;;;4986587;28;20058;-83
2023/06/19 03:16:35;;;;;;;9.65;6.93;;;22.40;55.30;;;;;;4986927;28;20552;-84
2023/06/19 03:19:03;;;;;;;10.43;6.93;;;22.40;55.50;;;;;;4985454;28;20169;-84
2023/06/19 03:21:31;;;;;;;8.80;6.28;;;22.40;55.80;;;;;;4970322;28;20113;-84
2023/06/19 03:23:58;;;;;;;11.10;6.33;;;22.40;56.20;;;;;;4986846;28;20076;-84
2023/06/19 03:26:26;;;;;;;9.10;6.55;;;22.40;56.40;;;;;;4986695;28;20575;-84
2023/06/19 03:28:54;;;;;;;8.25;6.30;;;22.40;56.60;;;;;;4986897;28;20055;-84
2023/06/19 03:31:22;;;;;;;8.35;6.10;;;22.40;56.80;;;;;;4986263;28;20055;-84
2023/06/19 03:33:49;;;;;;;8.23;6.35;;;22.30;56.90;;;;;;4986587;28;20051;-83
2023/06/19 03:36:17;;;;;;;8.57;5.93;;;22.40;57.10;;;;;;4985674;28;20129;-83
2023/06/19 03:38:54;;;;;;;8.45;6.32;;;22.40;57.20;;;;;;4971019;28;20074;-84
2023/06/19 03:41:24;;;;;;;8.15;5.43;;;22.30;57.40;;;;;;4986773;28;20101;-83
2023/06/19 03:43:51;;;;;;;7.53;5.63;;;22.30;57.50;;;;;;4987407;28;20055;-83
2023/06/19 03:46:19;;;;;;;9.25;6.53;;;22.30;57.70;;;;;;4986669;28;20342;-84
2023/06/19 03:48:47;;;;;;;7.60;5.57;;;22.30;57.70;;;;;;4986813;28;20054;-84
2023/06/19 03:51:13;;;;;;;10.00;5.75;;;22.30;57.90;;;;;;4986820;28;20058;-83
2023/06/19 03:53:41;;;;;;;8.55;5.00;;;22.30;58.00;;;;;;4985547;28;20121;-84
2023/06/19 03:56:10;;;;;;;6.53;4.68;;;22.30;58.20;;;;;;4986578;28;20133;-84
2023/06/19 03:58:37;;;;;;;7.68;4.80;;;22.20;58.60;;;;;;4970485;28;20512;-84
2023/06/19 04:01:05;;;;;;;7.47;4.50;;;22.20;58.80;;;;;;4987864;28;20568;-84
2023/06/19 04:03:32;;;;;;;6.82;4.05;;;22.20;59.00;;;;;;4973535;28;20461;-85
2023/06/19 04:05:59;;;;;;;9.65;4.20;;;22.10;59.30;;;;;;4987694;28;20146;-84
2023/06/19 04:08:26;;;;;;;7.10;3.80;;;22.10;59.40;;;;;;4998651;28;20167;-84
2023/06/19 04:10:53;;;;;;;6.40;4.22;;;22.00;59.60;;;;;;4985633;28;20055;-84
2023/06/19 04:13:22;;;;;;;5.67;3.47;;;22.00;59.90;;;;;;4985192;28;20718;-84
2023/06/19 04:15:49;;;;;;;5.95;3.80;;;22.00;59.80;;;;;;4956040;28;20055;-84
2023/06/19 04:18:16;;;;;;;7.30;3.50;;;22.00;60.20;;;;;;4989875;28;20141;-84
2023/06/19 04:20:43;;;;;;;5.57;3.30;;;21.90;60.50;;;;;;4988983;28;20135;-84
2023/06/19 04:23:13;;;;;;;6.05;3.30;;;21.90;60.40;;;;;;4988901;28;20469;-79
2023/06/19 04:25:40;;;;;;;5.67;3.30;;;21.90;60.80;;;;;;4989868;28;20437;-79
2023/06/19 04:28:07;;;;;;;6.80;3.22;;;21.80;61.00;;;;;;4988672;28;20142;-79
2023/06/19 04:30:35;;;;;;;6.20;3.38;;;21.90;61.50;;;;;;4987402;28;20043;-80
2023/06/19 04:33:02;;;;;;;5.07;3.00;;;21.80;61.80;;;;;;4979563;28;20059;-80
2023/06/19 04:35:29;;;;;;;5.93;3.47;;;21.70;61.90;;;;;;4982464;28;20062;-80
2023/06/19 04:38:00;;;;;;;5.07;3.10;;;21.70;62.40;;;;;;4978760;28;20051;-80
2023/06/19 04:40:27;;;;;;;5.65;2.90;;;21.70;62.60;;;;;;4981983;28;20050;-79
2023/06/19 04:42:55;;;;;;;6.45;3.50;;;21.60;63.10;;;;;;4981326;28;20059;-80
2023/06/19 04:45:22;;;;;;;6.47;3.08;;;21.50;63.10;;;;;;4990723;28;20133;-79
2023/06/19 04:47:50;;;;;;;6.05;3.20;;;21.50;63.40;;;;;;4988518;28;20505;-80
2023/06/19 04:50:17;;;;;;;5.33;2.83;;;21.40;63.40;;;;;;4988977;28;20568;-79
2023/06/19 04:52:44;;;;;;;6.07;2.80;;;21.40;63.80;;;;;;4988902;28;20050;-79
2023/06/19 04:55:11;;;;;;;6.55;3.05;;;21.40;63.80;;;;;;4979955;28;20057;-79
2023/06/19 04:57:38;;;;;;;6.43;3.40;;;21.40;64.20;;;;;;4980872;28;20693;-79
2023/06/19 05:00:07;;;;;;;6.30;2.90;;;21.40;64.40;;;;;;4974827;28;20090;-79
2023/06/19 05:02:34;;;;;;;5.17;3.10;;;21.30;64.40;;;;;;4988805;28;20055;-79
2023/06/19 05:05:03;;;;;;;6.93;3.45;;;21.30;64.70;;;;;;4988245;28;20051;-80
2023/06/19 05:07:31;;;;;;;7.22;3.38;;;21.30;65.00;;;;;;4988756;28;20113;-80
2023/06/19 05:09:58;;;;;;;6.22;3.35;;;21.20;65.10;;;;;;4979625;28;20043;-79
2023/06/19 05:12:25;;;;;;;6.82;3.60;;;21.20;65.30;;;;;;4979118;28;20051;-79
2023/06/19 05:14:52;;;;;;;5.93;3.10;;;21.10;65.60;;;;;;4987451;28;20051;-79
2023/06/19 05:17:19;;;;;;;6.35;3.40;;;21.10;65.70;;;;;;5021906;28;20061;-79
2023/06/19 05:19:47;;;;;;;6.28;3.28;;;21.10;65.80;;;;;;4989185;28;20046;-79
2023/06/19 05:22:18;;;;;;;6.25;3.25;;;21.10;65.90;;;;;;4987560;28;20051;-79
2023/06/19 05:24:46;;;;;;;6.55;3.30;;;21.10;66.40;;;;;;4978860;28;20131;-79
2023/06/19 05:27:13;;;;;;;6.17;3.43;;;21.10;66.70;;;;;;4961406;28;20043;-79
2023/06/19 05:29:40;;;;;;;6.32;3.90;;;21.10;66.80;;;;;;4985467;28;20134;-79
2023/06/19 05:32:07;;;;;;;6.60;3.90;;;21.10;67.20;;;;;;4985728;28;20548;-79
2023/06/19 05:34:34;;;;;;;7.57;4.13;;;21.10;67.50;;;;;;4979236;28;20517;-79
2023/06/19 05:37:03;;;;;;;6.55;3.80;;;21.10;67.60;;;;;;4982385;28;20057;-79
2023/06/19 05:39:32;;;;;;;7.17;3.80;;;21.10;67.80;;;;;;4987746;28;20062;-79
2023/06/19 05:41:59;;;;;;;6.97;3.92;;;21.10;68.10;;;;;;4988756;28;20057;-79
2023/06/19 05:44:26;;;;;;;7.45;4.65;;;21.10;68.30;;;;;;4989890;28;20181;-79
2023/06/19 05:46:53;;;;;;;5.78;3.67;;;21.10;68.60;;;;;;4991912;28;20050;-79
2023/06/19 05:49:21;;;;;;;6.38;4.22;;;21.10;68.40;;;;;;4992047;28;20054;-79
2023/06/19 05:51:48;;;;;;;6.97;4.10;;;21.10;68.70;;;;;;4988467;28;20053;-80
2023/06/19 05:54:17;;;;;;;7.05;4.50;;;21.10;68.80;;;;;;4993595;28;20531;-79
2023/06/19 05:56:46;;;;;;;6.38;3.97;;;21.10;69.20;;;;;;4991245;28;20113;-79
2023/06/19 05:59:15;;;;;;;6.22;4.00;;;21.10;69.20;;;;;;4980020;28;20102;-79
2023/06/19 06:01:42;;;;;;;6.38;4.10;;;21.10;69.20;;;;;;4997948;28;20945;-79
2023/06/19 06:04:09;;;;;;;6.07;3.70;;;21.10;69.50;;;;;;4978820;28;20399;-79
2023/06/19 06:06:37;;;;;;;6.47;4.38;;;21.10;69.40;;;;;;4987807;28;20046;-79
2023/06/19 06:09:04;;;;;;;6.35;3.88;;;21.10;69.80;;;;;;4986394;28;20075;-79
2023/06/19 06:11:31;;;;;;;6.57;4.18;;;21.10;69.90;;;;;;4994910;28;20584;-80
2023/06/19 06:14:00;;;;;;;6.68;4.10;;;21.10;70.00;;;;;;4992858;28;20059;-78
2023/06/19 06:16:27;;;;;;;5.77;4.20;;;21.10;70.00;;;;;;4995054;28;20737;-77
2023/06/19 06:18:54;;;;;;;7.45;4.15;;;21.10;70.30;;;;;;4995040;28;20166;-78
2023/06/19 06:21:21;;;;;;;8.10;4.22;;;21.10;70.10;;;;;;4973321;28;20057;-78
2023/06/19 06:23:48;;;;;;;5.75;3.80;;;21.10;70.40;;;;;;4994492;28;20101;-79
2023/06/19 06:26:15;;;;;;;6.15;4.30;;;21.10;70.60;;;;;;4994925;28;20142;-78
2023/06/19 06:28:42;;;;;;;6.23;4.53;;;21.10;71.00;;;;;;4998983;28;20501;-79
2023/06/19 06:31:11;;;;;;;7.65;5.00;;;21.20;71.30;;;;;;4983960;28;20113;-79
2023/06/19 06:33:38;;;;;;;8.18;4.60;;;21.20;71.80;;;;;;4997238;28;20047;-79
2023/06/19 06:36:05;;;;;;;8.57;5.97;;;21.10;72.10;;;;;;4970857;28;20058;-78
2023/06/19 06:38:32;;;;;;;9.20;6.90;;;21.10;72.30;;;;;;4993410;28;20061;-79
2023/06/19 06:40:59;;;;;;;12.03;7.90;;;21.10;72.60;;;;;;4987647;28;20053;-78
2023/06/19 06:43:26;;;;;;;10.25;8.27;;;21.10;72.60;;;;;;4995587;28;20086;-78
2023/06/19 06:45:53;;;;;;;12.65;9.35;;;21.10;72.80;;;;;;4990534;28;20174;-78
2023/06/19 06:48:22;;;;;;;13.32;9.82;;;21.10;72.90;;;;;;4992922;28;20055;-79
2023/06/19 06:50:49;;;;;;;14.63;10.00;;;21.10;72.90;;;;;;4989737;28;20054;-79
2023/06/19 06:53:16;;;;;;;13.47;10.23;;;21.10;72.70;;;;;;4970558;28;20102;-79
2023/06/19 06:55:43;;;;;;;11.55;8.45;;;21.10;72.60;;;;;;4969920;28;20050;-87
2023/06/19 06:58:13;;;;;;;12.07;9.10;;;21.10;72.60;;;;;;4986111;28;20600;-86
2023/06/19 07:00:40;;;;;;;13.25;10.05;;;21.10;72.60;;;;;;4998391;28;20039;-86
2023/06/19 07:03:08;;;;;;;12.18;8.75;;;21.10;72.80;;;;;;4998552;28;20052;-86
2023/06/19 07:05:37;;;;;;;13.93;8.17;;;21.10;72.70;;;;;;4971666;28;20058;-82
2023/06/19 07:08:04;;;;;;;10.50;7.38;;;21.10;72.90;;;;;;4985228;28;20058;-84
2023/06/19 07:10:31;;;;;;;10.35;7.20;;;21.00;72.90;;;;;;4967895;28;20051;-85
2023/06/19 07:12:58;;;;;;;9.93;7.07;;;21.00;72.80;;;;;;4980008;28;20059;-83
2023/06/19 07:15:25;;;;;;;8.93;6.20;;;21.00;72.60;;;;;;4986874;28;20051;-82
2023/06/19 07:17:53;;;;;;;8.97;5.50;;;21.00;72.30;;;;;;4986904;28;20133;-86
2023/06/19 07:20:20;;;;;;;7.70;5.20;;;21.10;72.00;;;;;;5018782;28;20133;-86
2023/06/19 07:22:51;;;;;;;9.48;5.38;;;21.10;72.00;;;;;;4978349;28;21356;-87
2023/06/19 07:25:18;;;;;;;7.40;4.05;;;21.10;71.60;;;;;;5000114;28;20052;-81
2023/06/19 07:27:45;;;;;;;5.57;3.97;;;21.10;71.70;;;;;;4997817;28;20054;-87
2023/06/19 07:30:13;;;;;;;5.23;2.90;;;21.00;71.70;;;;;;4984261;28;20124;-85
2023/06/19 07:32:40;;;;;;;6.60;3.67;;;21.00;71.50;;;;;;4982681;28;20053;-85
2023/06/19 07:35:08;;;;;;;5.85;3.70;;;21.00;71.60;;;;;;4992349;28;20078;-85
2023/06/19 07:37:35;;;;;;;5.90;2.88;;;21.00;71.70;;;;;;4999452;28;20066;-85
2023/06/19 07:40:05;;;;;;;7.13;4.93;;;20.90;71.80;;;;;;4989209;28;20065;-83
2023/06/19 07:42:32;;;;;;;7.57;5.80;;;20.90;71.90;;;;;;4989086;28;20935;-86
2023/06/19 07:44:59;;;;;;;9.13;5.93;;;20.90;71.80;;;;;;4990319;28;20046;-84
2023/06/19 07:47:28;;;;;;;7.03;5.38;;;20.90;71.90;;;;;;4973876;28;20127;-86
2023/06/19 07:49:55;;;;;;;7.95;5.53;;;20.90;72.00;;;;;;4989408;28;20046;-82
2023/06/19 07:52:22;;;;;;;8.00;5.45;;;20.90;71.90;;;;;;4987989;28;20046;-82
2023/06/19 07:54:52;;;;;;;6.77;3.87;;;20.80;72.20;;;;;;4982866;28;21088;-81
2023/06/19 07:57:20;;;;;;;7.88;4.05;;;20.80;72.20;;;;;;4984184;28;20430;-81
2023/06/19 07:59:47;;;;;;;5.75;3.45;;;20.80;71.90;;;;;;5005309;28;20054;-82
2023/06/19 08:02:14;;;;;;;7.05;4.60;;;20.80;72.10;;;;;;4985809;28;20050;-82
2023/06/19 08:04:42;;;;;;;5.40;3.63;;;20.80;71.90;;;;;;5008098;28;20059;-80
2023/06/19 08:07:09;;;;;;;6.70;5.00;;;20.70;72.30;;;;;;4987283;28;20055;-80
2023/06/19 08:09:36;;;;;;;6.63;4.57;;;20.80;71.70;;;;;;4976826;28;20074;-81
2023/06/19 08:12:03;;;;;;;7.70;5.60;;;20.80;71.60;;;;;;4983224;28;20055;-79
2023/06/19 08:14:32;;;;;;;8.43;6.18;;;20.80;71.50;;;;;;4975397;28;20820;-81
2023/06/19 08:16:59;;;;;;;9.20;7.30;;;20.90;69.90;;;;;;4985055;28;20062;-80
2023/06/19 08:19:26;;;;;;;8.57;7.10;;;20.90;70.10;;;;;;4989077;28;20054;-79
2023/06/19 08:21:53;;;;;;;8.48;7.28;;;20.90;70.10;;;;;;4988387;28;20059;-81
2023/06/19 08:24:20;;;;;;;10.38;7.68;;;20.90;70.10;;;;;;4980592;28;20051;-81
2023/06/19 08:26:50;;;;;;;9.15;7.70;;;20.90;70.10;;;;;;4984573;28;20830;-79
2023/06/19 08:29:18;;;;;;;10.00;8.35;;;20.90;70.40;;;;;;4965860;28;20054;-83
2023/06/19 08:31:47;;;;;;;9.43;8.40;;;20.90;70.30;;;;;;4973511;28;20090;-79
2023/06/19 08:34:14;;;;;;;7.53;5.63;;;20.90;69.90;;;;;;4989434;28;20058;-81
2023/06/19 08:36:41;;;;;;;11.45;8.25;;;20.90;69.60;;;;;;4988637;28;20050;-80
2023/06/19 08:39:08;;;;;;;9.65;8.60;;;20.90;69.50;;;;;;4989530;28;20057;-79
2023/06/19 08:41:37;;;;;;;7.95;5.95;;;20.90;69.20;;;;;;4989603;28;20066;-78
2023/06/19 08:44:05;;;;;;;12.17;7.57;;;20.90;69.60;;;;;;4989939;28;20102;-84
2023/06/19 08:46:32;;;;;;;10.52;9.15;;;20.80;69.70;;;;;;4985205;28;20154;-82
2023/06/19 08:49:01;;;;;;;11.55;9.50;;;20.80;69.90;;;;;;4979905;28;20061;-83
2023/06/19 08:51:30;;;;;;;9.23;7.68;;;20.80;70.20;;;;;;4966873;28;20050;-83
2023/06/19 08:54:03;;;;;;;8.50;6.57;;;20.80;69.50;;;;;;4983219;28;20067;-85
2023/06/19 08:56:33;;;;;;;7.93;5.50;;;20.80;69.20;;;;;;4989642;28;20047;-84
2023/06/19 08:59:10;;;;;;;7.80;5.95;;;20.80;69.00;;;;;;4989802;28;20061;-83
2023/06/19 09:01:37;;;;;;;8.82;6.20;;;20.80;69.20;;;;;;4973090;28;20497;-86
2023/06/19 09:04:13;;;;;;;8.50;5.50;;;20.80;69.30;;;;;;4988965;28;20440;-81
2023/06/19 09:06:51;;;;;;;11.32;6.28;;;20.80;69.40;;;;;;4983573;28;20130;-78
2023/06/19 09:09:20;;;;;;;8.47;5.47;;;20.80;69.20;;;;;;4988857;28;20513;-89
2023/06/19 09:11:58;;;;;;;9.85;5.85;;;20.80;68.80;;;;;;4971956;28;20054;-82
2023/06/19 09:14:31;;;;;;;10.10;5.72;;;20.80;68.70;;;;;;4988004;28;20074;-80
2023/06/19 09:16:59;;;;;;;9.60;6.43;;;20.90;68.50;;;;;;4977761;28;20047;-87
2023/06/19 09:19:27;;;;;;;9.35;5.72;;;20.90;68.40;;;;;;4970891;28;20101;-77
2023/06/19 09:21:59;;;;;;;9.60;5.57;;;20.90;68.30;;;;;;4986600;28;20473;-80
2023/06/19 09:24:34;;;;;;;10.85;7.18;;;20.90;68.30;;;;;;4982340;28;20051;-81
2023/06/19 09:27:07;;;;;;;9.10;6.25;;;20.90;68.10;;;;;;4990130;28;20050;-78
2023/06/19 09:29:37;;;;;;;11.20;6.75;;;20.90;68.00;;;;;;4990827;28;20058;-80
2023/06/19 09:32:15;;;;;;;11.38;6.93;;;20.90;67.80;;;;;;4982139;28;20047;-85
2023/06/19 09:34:44;;;;;;;10.93;7.20;;;21.00;68.20;;;;;;4970570;28;20978;-83
2023/06/19 09:37:11;;;;;;;13.73;8.38;;;21.00;68.30;;;;;;4988081;28;20065;-77
2023/06/19 09:39:39;;;;;;;12.27;8.85;;;21.00;68.60;;;;;;4987811;28;20078;-86
2023/06/19 09:42:08;;;;;;;13.80;9.27;;;21.00;68.90;;;;;;4986783;28;20055;-82
2023/06/19 09:44:41;;;;;;;14.63;9.95;;;21.00;68.80;;;;;;4971023;28;20047;-83
2023/06/19 09:47:17;;;;;;;14.43;8.20;;;21.00;68.90;;;;;;4982424;28;20544;-77
2023/06/19 09:49:49;;;;;;;13.95;10.10;;;21.00;69.20;;;;;;4982105;28;20557;-79
2023/06/19 09:52:16;;;;;;;11.80;5.50;;;21.00;69.00;;;;;;4975466;28;20043;-80
2023/06/19 09:54:44;;;;;;;14.00;10.38;;;21.00;68.40;;;;;;4987287;28;20062;-80
2023/06/19 09:57:11;;;;;;;11.43;6.22;;;21.00;68.60;;;;;;4981995;28;20055;-80
2023/06/19 09:59:40;;;;;;;14.57;8.60;;;20.90;68.70;;;;;;4985449;28;20221;-78
2023/06/19 10:02:09;;;;;;;14.75;9.48;;;20.80;68.90;;;;;;4987870;28;20543;-79
2023/06/19 10:04:45;;;;;;;14.05;8.45;;;20.70;68.70;;;;;;4992989;28;20050;-79
2023/06/19 10:07:17;;;;;;;16.00;10.13;;;20.70;68.80;;;;;;4985373;28;21012;-79
2023/06/19 10:09:59;;;;;;;14.77;8.02;;;20.60;69.10;;;;;;5012670;28;20047;-79
2023/06/19 10:12:46;;;;;;;10.93;7.40;;;20.60;68.90;;;;;;4986388;28;20058;-78
2023/06/19 10:15:17;;;;;;;15.07;9.75;;;20.50;69.60;;;;;;4988913;28;20059;-78
2023/06/19 10:17:48;;;;;;;14.27;9.70;;;20.50;69.60;;;;;;4987215;28;20141;-78
2023/06/19 10:20:31;;;;;;;12.48;8.05;;;20.60;69.30;;;;;;4991918;28;20567;-79
2023/06/19 10:23:05;;;;;;;14.65;8.23;;;20.60;69.10;;;;;;4992045;28;20050;-78
2023/06/19 10:25:35;;;;;;;12.33;7.97;;;20.60;68.50;;;;;;4991655;28;20121;-79
2023/06/19 10:28:05;;;;;;;11.05;7.95;;;20.60;68.60;;;;;;4987900;28;20050;-78
2023/06/19 10:30:34;;;;;;;10.45;6.32;;;20.60;68.60;;;;;;4990106;28;20083;-79
2023/06/19 10:33:03;;;;;;;11.63;7.38;;;20.60;68.50;;;;;;4993918;28;20051;-78
2023/06/19 10:35:39;;;;;;;8.63;4.70;;;20.60;68.40;;;;;;4985744;28;20078;-79
2023/06/19 10:38:06;;;;;;;11.87;7.60;;;20.70;67.90;;;;;;4983547;28;20059;-78
2023/06/19 10:40:33;;;;;;;12.38;7.97;;;20.70;67.90;;;;;;4992292;28;20444;-79
2023/06/19 10:43:00;;;;;;;10.40;6.40;;;20.70;67.70;;;;;;4985707;28;20055;-79
2023/06/19 10:45:28;;;;;;;10.63;6.50;;;20.70;67.70;;;;;;4983446;28;20053;-79
2023/06/19 10:47:56;;;;;;;10.70;7.30;;;20.80;67.70;;;;;;4985042;28;20062;-78
2023/06/19 10:50:23;;;;;;;11.03;6.23;;;20.80;67.50;;;;;;4987996;28;20050;-81
2023/06/19 10:52:54;;;;;;;10.38;6.75;;;20.80;67.70;;;;;;4985992;28;20090;-79
2023/06/19 10:55:22;;;;;;;10.70;7.05;;;20.80;67.80;;;;;;4986126;28;20047;-78
2023/06/19 10:57:50;;;;;;;10.77;6.78;;;20.80;67.40;;;;;;4987762;28;20082;-79
2023/06/19 11:00:25;;;;;;;11.35;7.05;;;20.80;67.70;;;;;;4980437;28;20138;-79
2023/06/19 11:02:53;;;;;;;12.13;7.43;;;20.80;67.50;;;;;;4985099;28;20054;-80
2023/06/19 11:05:21;;;;;;;12.75;7.97;;;20.80;67.30;;;;;;4985098;28;20064;-80
2023/06/19 11:07:54;;;;;;;13.05;7.60;;;20.80;67.60;;;;;;4982779;28;20043;-80
2023/06/19 11:10:24;;;;;;;12.38;7.55;;;20.80;67.80;;;;;;4982787;28;20051;-80
2023/06/19 11:12:54;;;;;;;10.13;6.38;;;20.90;68.70;;;;;;4969234;28;20133;-79
2023/06/19 11:15:29;;;;;;;13.40;8.27;;;20.90;67.20;;;;;;4983174;28;20054;-79
2023/06/19 11:17:56;;;;;;;10.88;7.28;;;21.00;67.80;;;;;;4986224;28;20043;-78
2023/06/19 11:20:24;;;;;;;9.60;6.55;;;21.00;67.20;;;;;;4986312;28;20047;-79
2023/06/19 11:22:58;;;;;;;11.15;5.97;;;21.10;65.90;;;;;;4988035;28;20465;-79
2023/06/19 11:25:36;;;;;;;8.65;5.03;;;21.10;66.00;;;;;;4988098;28;20477;-78
2023/06/19 11:28:03;;;;;;;9.33;6.40;;;21.10;64.60;;;;;;4985169;28;20055;-79
2023/06/19 11:30:32;;;;;;;11.32;7.07;;;21.10;65.10;;;;;;4987947;28;20125;-79
2023/06/19 11:33:01;;;;;;;11.02;7.97;;;21.10;65.90;;;;;;4986131;28;20494;-78
2023/06/19 11:35:35;;;;;;;12.10;7.55;;;21.10;65.50;;;;;;4985210;28;20047;-80
2023/06/19 11:38:05;;;;;;;8.82;5.60;;;21.10;65.60;;;;;;4988168;28;20065;-80
2023/06/19 11:40:40;;;;;;;7.97;4.53;;;21.10;66.20;;;;;;5003545;28;20543;-81
2023/06/19 11:43:09;;;;;;;11.40;6.80;;;21.10;66.30;;;;;;4987001;28;20560;-81
2023/06/19 11:45:47;;;;;;;12.95;7.55;;;21.10;66.50;;;;;;5003414;28;20047;-80
2023/06/19 11:48:23;;;;;;;11.45;8.27;;;21.10;65.90;;;;;;4987436;28;20047;-81
2023/06/19 11:50:54;;;;;;;11.73;7.95;;;21.10;66.00;;;;;;4985343;28;20137;-80
2023/06/19 11:57:04;;;;;;;10.77;6.38;;;21.20;65.60;;;;;;4922373;29;20112;-81
2023/06/19 11:59:32;;;;;;;12.43;7.55;;;21.20;65.90;;;;;;4944017;28;20080;-81
2023/06/19 12:01:59;;;;;;;11.32;6.57;;;21.30;64.60;;;;;;4956316;28;20609;-81
2023/06/19 12:04:27;;;;;;;12.32;7.18;;;21.30;64.80;;;;;;4925411;29;20052;-81
2023/06/19 12:06:54;;;;;;;13.97;8.30;;;21.30;65.20;;;;;;4927212;29;20062;-81
2023/06/19 12:09:21;;;;;;;13.30;8.95;;;21.40;65.00;;;;;;4922390;29;20127;-81
2023/06/19 12:11:48;;;;;;;12.45;8.90;;;21.40;65.10;;;;;;4905764;29;20061;-81
2023/06/19 12:14:18;;;;;;;14.30;8.25;;;21.50;65.20;;;;;;4926834;29;20067;-81
2023/06/19 12:16:46;;;;;;;13.10;7.78;;;21.50;65.00;;;;;;4927028;29;20076;-80
2023/06/19 12:19:13;;;;;;;11.10;7.50;;;21.60;65.10;;;;;;4960821;28;20056;-81
2023/06/19 12:21:40;;;;;;;12.13;7.88;;;21.70;64.70;;;;;;4926262;29;20056;-80
2023/06/19 12:24:07;;;;;;;12.75;7.97;;;21.70;64.60;;;;;;4963198;28;20063;-80
2023/06/19 12:26:36;;;;;;;13.05;8.20;;;21.70;64.40;;;;;;4931492;29;20056;-81
2023/06/19 12:29:03;;;;;;;14.65;9.30;;;21.70;64.00;;;;;;4944226;28;20076;-80
2023/06/19 12:31:32;;;;;;;13.53;8.40;;;21.80;63.90;;;;;;4924578;29;20052;-79
2023/06/19 12:34:01;;;;;;;12.05;7.47;;;21.80;63.90;;;;;;4917204;29;20052;-79
2023/06/19 12:36:28;;;;;;;12.75;8.00;;;21.80;64.90;;;;;;4932580;28;20068;-79
2023/06/19 12:38:55;;;;;;;13.48;9.35;;;21.80;65.00;;;;;;4931753;29;20177;-79
2023/06/19 12:41:22;;;;;;;13.70;9.05;;;21.90;64.20;;;;;;4929932;29;20434;-78
2023/06/19 12:43:49;;;;;;;14.40;9.30;;;21.90;64.20;;;;;;4928843;29;20056;-78
2023/06/19 12:46:16;;;;;;;12.95;7.47;;;21.90;64.00;;;;;;4931289;28;20064;-79
2023/06/19 12:48:50;;;;;;;13.80;7.45;;;22.00;64.00;;;;;;4926844;29;20082;-79
2023/06/19 12:51:18;;;;;;;14.93;8.00;;;22.00;63.40;;;;;;4962181;28;20084;-78
2023/06/19 12:53:45;;;;;;;10.30;5.95;;;22.00;64.10;;;;;;4932507;29;20059;-78